createdAt,value
2016-12-25T00:00:12.289Z,739.65
2016-12-25T00:01:12.267Z,739.94
2016-12-25T00:02:12.240Z,739.56
2016-12-25T00:03:12.218Z,739.63
2016-12-25T00:04:12.196Z,739.59
2016-12-25T00:05:12.177Z,739.57
2016-12-25T00:06:12.150Z,739.31
2016-12-25T00:07:12.128Z,739.47
2016-12-25T00:08:12.105Z,739.73
2016-12-25T00:09:12.083Z,739.66
2016-12-25T00:10:12.063Z,739.8
2016-12-25T00:11:12.037Z,739.6
2016-12-25T00:12:12.015Z,739.57
2016-12-25T00:13:11.994Z,739.57
2016-12-25T00:14:11.972Z,739.52
2016-12-25T00:15:11.947Z,739.75
2016-12-25T00:16:11.924Z,739.54
2016-12-25T00:17:11.904Z,739.68
2016-12-25T00:18:11.878Z,739.81
2016-12-25T00:19:11.856Z,739.8
2016-12-25T00:20:11.836Z,739.62
2016-12-25T00:21:11.811Z,739.22
2016-12-25T00:22:11.791Z,739.71
2016-12-25T00:23:11.769Z,739.96
2016-12-25T00:24:11.742Z,739.38
2016-12-25T00:25:11.720Z,739.37
2016-12-25T00:26:11.697Z,739.56
2016-12-25T00:27:11.677Z,739.66
2016-12-25T00:28:11.651Z,739.51
2016-12-25T00:29:11.631Z,739.35
2016-12-25T00:30:11.606Z,739.15
2016-12-25T00:31:11.582Z,739.67
2016-12-25T00:32:11.559Z,739.41
2016-12-25T00:33:11.540Z,739.51
2016-12-25T00:34:11.518Z,739.5
2016-12-25T00:35:11.491Z,739.53
2016-12-25T00:36:11.469Z,739.62
2016-12-25T00:37:11.449Z,739.25
2016-12-25T00:38:11.424Z,739.36
2016-12-25T00:39:11.403Z,739.19
2016-12-25T00:40:11.381Z,739.07
2016-12-25T00:41:11.355Z,739.31
2016-12-25T00:42:11.335Z,739.26
2016-12-25T00:43:11.309Z,739.28
2016-12-25T00:44:11.287Z,739.44
2016-12-25T00:45:11.263Z,739.14
2016-12-25T00:46:11.241Z,739.01
2016-12-25T00:47:11.218Z,739.3
2016-12-25T00:48:11.200Z,739.62
2016-12-25T00:49:11.173Z,739.37
2016-12-25T00:50:11.153Z,739.16
2016-12-25T00:51:11.130Z,739.27
2016-12-25T00:52:11.108Z,738.72
2016-12-25T00:53:11.081Z,739.47
2016-12-25T00:54:11.059Z,739.42
2016-12-25T00:55:11.039Z,739.17
2016-12-25T00:56:11.016Z,739.73
2016-12-25T00:57:10.990Z,739.41
2016-12-25T00:58:10.970Z,739.4
2016-12-25T00:59:10.945Z,739.56
2016-12-25T01:00:10.925Z,739.3
2016-12-25T01:01:10.899Z,739.28
2016-12-25T01:02:10.876Z,739.05
2016-12-25T01:03:10.857Z,739.41
2016-12-25T01:04:10.830Z,739
2016-12-25T01:05:10.808Z,738.91
2016-12-25T01:06:10.788Z,739.12
2016-12-25T01:07:10.766Z,739.14
2016-12-25T01:08:10.739Z,739.18
2016-12-25T01:09:10.720Z,739.03
2016-12-25T01:10:10.698Z,738.86
2016-12-25T01:11:10.673Z,739.41
2016-12-25T01:12:10.649Z,739.19
2016-12-25T01:13:10.630Z,739.16
2016-12-25T01:14:10.607Z,739
2016-12-25T01:15:10.581Z,739.27
2016-12-25T01:16:10.558Z,739.19
2016-12-25T01:17:10.538Z,739.33
2016-12-25T01:18:10.517Z,739.27
2016-12-25T01:19:10.493Z,739.32
2016-12-25T01:20:10.468Z,738.87
2016-12-25T01:21:10.449Z,739.26
2016-12-25T01:22:10.427Z,738.97
2016-12-25T01:23:10.403Z,738.69
2016-12-25T01:24:10.381Z,739.2
2016-12-25T01:25:10.355Z,739.13
2016-12-25T01:26:10.335Z,739.34
2016-12-25T01:27:10.313Z,739.21
2016-12-25T01:28:10.291Z,739.32
2016-12-25T01:29:10.264Z,739.48
2016-12-25T01:30:10.241Z,739.35
2016-12-25T01:31:10.222Z,739.19
2016-12-25T01:32:10.197Z,739.25
2016-12-25T01:33:10.174Z,739.15
2016-12-25T01:34:10.150Z,739.21
2016-12-25T01:35:10.127Z,739.02
2016-12-25T01:36:10.105Z,739.18
2016-12-25T01:37:10.085Z,739.12
2016-12-25T01:38:10.059Z,739.01
2016-12-25T01:39:10.036Z,738.94
2016-12-25T01:40:10.016Z,739.22
2016-12-25T01:41:09.992Z,738.99
2016-12-25T01:42:09.969Z,739.12
2016-12-25T01:43:09.947Z,739.12
2016-12-25T01:44:09.921Z,738.83
2016-12-25T01:45:09.900Z,739.24
2016-12-25T01:46:09.876Z,737.6
2016-12-25T01:47:09.852Z,739.14
2016-12-25T01:48:09.828Z,738.69
2016-12-25T01:49:09.805Z,738.74
2016-12-25T01:50:09.811Z,739.08
2016-12-25T01:51:09.763Z,739.18
2016-12-25T01:52:09.740Z,738.86
2016-12-25T01:53:09.738Z,738.82
2016-12-25T01:54:09.692Z,738.97
2016-12-25T01:55:09.672Z,739.33
2016-12-25T01:56:09.651Z,739.08
2016-12-25T01:57:09.624Z,738.67
2016-12-25T01:58:09.604Z,738.82
2016-12-25T01:59:09.578Z,738.72
2016-12-25T02:00:09.558Z,738.82
2016-12-25T02:01:09.532Z,738.52
2016-12-25T02:02:09.512Z,738.97
2016-12-25T02:03:09.488Z,738.28
2016-12-25T02:04:09.463Z,738.66
2016-12-25T02:05:09.440Z,738.18
2016-12-25T02:06:09.419Z,738.51
2016-12-25T02:07:09.393Z,738.95
2016-12-25T02:08:09.373Z,738.58
2016-12-25T02:09:09.347Z,738.49
2016-12-25T02:10:09.326Z,738.6
2016-12-25T02:11:09.300Z,738.47
2016-12-25T02:12:09.277Z,738.52
2016-12-25T02:13:09.256Z,739.08
2016-12-25T02:14:09.233Z,738.89
2016-12-25T02:15:09.206Z,738.84
2016-12-25T02:16:09.183Z,738.45
2016-12-25T02:17:09.159Z,738.19
2016-12-25T02:18:09.136Z,738.37
2016-12-25T02:19:09.113Z,738.22
2016-12-25T02:20:09.092Z,738.79
2016-12-25T02:21:09.065Z,737.84
2016-12-25T02:22:09.045Z,738.33
2016-12-25T02:23:09.022Z,738.24
2016-12-25T02:24:08.995Z,738.67
2016-12-25T02:25:08.974Z,738.13
2016-12-25T02:26:08.949Z,738.8
2016-12-25T02:27:08.935Z,738.32
2016-12-25T02:28:08.898Z,738.5
2016-12-25T02:29:08.876Z,738.56
2016-12-25T02:30:08.853Z,738.47
2016-12-25T02:31:08.829Z,738.51
2016-12-25T02:32:08.809Z,738.32
2016-12-25T02:33:08.785Z,738.63
2016-12-25T02:34:08.761Z,738.48
2016-12-25T02:35:08.735Z,738.41
2016-12-25T02:36:08.712Z,738.56
2016-12-25T02:37:08.690Z,738.29
2016-12-25T02:38:08.667Z,738.53
2016-12-25T02:39:08.647Z,738.2
2016-12-25T02:40:08.619Z,738.32
2016-12-25T02:41:08.596Z,737.99
2016-12-25T02:42:08.573Z,738.48
2016-12-25T02:43:08.548Z,738.2
2016-12-25T02:44:08.522Z,738.63
2016-12-25T02:45:08.501Z,738.4
2016-12-25T02:46:08.475Z,738.97
2016-12-25T02:47:08.455Z,738.82
2016-12-25T02:48:08.428Z,738.09
2016-12-25T02:49:08.404Z,737.92
2016-12-25T02:50:08.379Z,738.22
2016-12-25T02:51:08.356Z,738.2
2016-12-25T02:52:08.336Z,738.29
2016-12-25T02:53:08.310Z,738.51
2016-12-25T02:54:08.288Z,738.43
2016-12-25T02:55:08.265Z,738.27
2016-12-25T02:56:08.242Z,738.36
2016-12-25T02:57:08.215Z,738.45
2016-12-25T02:58:08.194Z,738.2
2016-12-25T02:59:08.167Z,738.12
2016-12-25T03:00:08.144Z,737.92
2016-12-25T03:01:08.120Z,738.2
2016-12-25T03:02:08.100Z,738.04
2016-12-25T03:03:08.076Z,737.61
2016-12-25T03:04:08.050Z,737.94
2016-12-25T03:05:08.025Z,737.76
2016-12-25T03:06:08.005Z,738.12
2016-12-25T03:07:07.981Z,738.01
2016-12-25T03:08:07.955Z,737.96
2016-12-25T03:09:07.932Z,738
2016-12-25T03:10:07.911Z,738.42
2016-12-25T03:11:07.887Z,738.17
2016-12-25T03:12:07.860Z,738.5
2016-12-25T03:13:07.840Z,737.93
2016-12-25T03:14:07.816Z,737.87
2016-12-25T03:15:07.790Z,738.04
2016-12-25T03:16:07.767Z,737.67
2016-12-25T03:17:07.745Z,737.84
2016-12-25T03:18:07.719Z,737.54
2016-12-25T03:19:07.698Z,737.82
2016-12-25T03:20:07.671Z,737.73
2016-12-25T03:21:07.651Z,737.84
2016-12-25T03:22:07.627Z,737.94
2016-12-25T03:23:07.600Z,738.07
2016-12-25T03:24:07.580Z,738.39
2016-12-25T03:25:07.556Z,737.96
2016-12-25T03:26:07.530Z,737.95
2016-12-25T03:27:07.507Z,738.22
2016-12-25T03:28:07.485Z,738.69
2016-12-25T03:29:07.465Z,738.01
2016-12-25T03:30:07.435Z,737.6
2016-12-25T03:31:07.415Z,738.18
2016-12-25T03:32:07.389Z,737.98
2016-12-25T03:33:07.372Z,738.04
2016-12-25T03:34:07.344Z,737.79
2016-12-25T03:35:07.318Z,737.23
2016-12-25T03:36:07.298Z,737.82
2016-12-25T03:37:07.272Z,737.82
2016-12-25T03:38:07.248Z,737.93
2016-12-25T03:39:07.224Z,737.85
2016-12-25T03:40:07.204Z,738.3
2016-12-25T03:41:07.177Z,737.8
2016-12-25T03:42:07.157Z,737.59
2016-12-25T03:43:07.131Z,738.03
2016-12-25T03:44:07.111Z,738.06
2016-12-25T03:45:07.083Z,738.18
2016-12-25T03:46:07.067Z,737.69
2016-12-25T03:47:07.038Z,738.14
2016-12-25T03:48:07.014Z,737.79
2016-12-25T03:49:06.990Z,737.84
2016-12-25T03:50:06.970Z,738.01
2016-12-25T03:51:06.947Z,738.35
2016-12-25T03:52:06.920Z,738.13
2016-12-25T03:53:06.900Z,737.99
2016-12-25T03:54:06.874Z,737.91
2016-12-25T03:55:06.854Z,737.96
2016-12-25T03:56:06.828Z,738.12
2016-12-25T03:57:06.804Z,737.99
2016-12-25T03:58:06.785Z,738.24
2016-12-25T03:59:06.762Z,737.91
2016-12-25T04:00:06.738Z,738.05
2016-12-25T04:01:06.712Z,737.32
2016-12-25T04:02:06.692Z,738.14
2016-12-25T04:03:06.665Z,738.24
2016-12-25T04:04:06.642Z,737.91
2016-12-25T04:05:06.623Z,737.79
2016-12-25T04:06:06.599Z,738.29
2016-12-25T04:07:06.577Z,737.69
2016-12-25T04:08:06.549Z,737.43
2016-12-25T04:09:06.529Z,738.11
2016-12-25T04:10:06.504Z,738.28
2016-12-25T04:11:06.479Z,738.31
2016-12-25T04:12:06.456Z,738.13
2016-12-25T04:13:06.433Z,737.56
2016-12-25T04:14:06.409Z,737.77
2016-12-25T04:15:06.389Z,737.92
2016-12-25T04:16:06.363Z,737.43
2016-12-25T04:17:06.344Z,737.83
2016-12-25T04:18:06.316Z,737.49
2016-12-25T04:19:06.294Z,738.46
2016-12-25T04:20:06.274Z,737.76
2016-12-25T04:21:06.252Z,737.65
2016-12-25T04:22:06.225Z,738.03
2016-12-25T04:23:06.202Z,738.04
2016-12-25T04:24:06.179Z,737.8
2016-12-25T04:25:06.155Z,737.87
2016-12-25T04:26:06.132Z,738.2
2016-12-25T04:27:06.113Z,737.97
2016-12-25T04:28:06.090Z,737.92
2016-12-25T04:29:06.066Z,737.03
2016-12-25T04:30:06.041Z,737.88
2016-12-25T04:31:06.021Z,737.79
2016-12-25T04:32:05.999Z,738.27
2016-12-25T04:33:05.971Z,738.18
2016-12-25T04:34:05.952Z,738
2016-12-25T04:35:05.928Z,738.15
2016-12-25T04:36:05.904Z,738.1
2016-12-25T04:37:05.882Z,738.28
2016-12-25T04:38:05.855Z,738.44
2016-12-25T04:39:05.832Z,737.96
2016-12-25T04:40:05.809Z,737.96
2016-12-25T04:41:05.786Z,738.09
2016-12-25T04:42:05.763Z,738.05
2016-12-25T04:43:05.740Z,737.91
2016-12-25T04:44:05.719Z,737.74
2016-12-25T04:45:05.694Z,737.3
2016-12-25T04:46:05.671Z,738.21
2016-12-25T04:47:05.648Z,737.89
2016-12-25T04:48:05.624Z,737.88
2016-12-25T04:49:05.602Z,737.64
2016-12-25T04:50:05.583Z,737.72
2016-12-25T04:51:05.558Z,737.95
2016-12-25T04:52:05.533Z,738.31
2016-12-25T04:53:05.510Z,738.26
2016-12-25T04:54:05.490Z,738.19
2016-12-25T04:55:05.462Z,737.92
2016-12-25T04:56:05.440Z,738.37
2016-12-25T04:57:05.417Z,738.61
2016-12-25T04:58:05.396Z,738.11
2016-12-25T04:59:05.370Z,738.02
2016-12-25T05:00:05.347Z,737.11
2016-12-25T05:01:05.325Z,737.62
2016-12-25T05:02:05.301Z,737.99
2016-12-25T05:03:05.278Z,737.75
2016-12-25T05:04:05.258Z,737.48
2016-12-25T05:05:05.232Z,738.23
2016-12-25T05:06:05.209Z,738.31
2016-12-25T05:07:05.189Z,738.23
2016-12-25T05:08:05.167Z,737.79
2016-12-25T05:09:05.140Z,738.05
2016-12-25T05:10:05.117Z,737.93
2016-12-25T05:11:05.097Z,738.27
2016-12-25T05:12:05.075Z,738.09
2016-12-25T05:13:05.051Z,738.29
2016-12-25T05:14:05.028Z,738.35
2016-12-25T05:15:05.005Z,738.5
2016-12-25T05:16:04.981Z,738.27
2016-12-25T05:17:04.958Z,737.96
2016-12-25T05:18:04.932Z,737.96
2016-12-25T05:19:04.913Z,738.04
2016-12-25T05:20:04.888Z,737.89
2016-12-25T05:21:04.866Z,738.39
2016-12-25T05:22:04.839Z,737.47
2016-12-25T05:23:04.816Z,738.45
2016-12-25T05:24:04.791Z,737.85
2016-12-25T05:25:04.772Z,738.71
2016-12-25T05:26:04.749Z,737.87
2016-12-25T05:27:04.725Z,738.61
2016-12-25T05:28:04.702Z,737.82
2016-12-25T05:29:04.676Z,738.2
2016-12-25T05:30:04.652Z,737.93
2016-12-25T05:31:04.628Z,737.94
2016-12-25T05:32:04.605Z,737.83
2016-12-25T05:33:04.582Z,738.1
2016-12-25T05:34:04.559Z,738.13
2016-12-25T05:35:04.538Z,738.28
2016-12-25T05:36:04.515Z,738.37
2016-12-25T05:37:04.492Z,738.4
2016-12-25T05:38:04.469Z,738.13
2016-12-25T05:39:04.443Z,738.38
2016-12-25T05:40:04.420Z,738.57
2016-12-25T05:41:04.397Z,738.6
2016-12-25T05:42:04.377Z,738.65
2016-12-25T05:43:04.351Z,738.78
2016-12-25T05:44:04.332Z,738.33
2016-12-25T05:45:04.312Z,738.55
2016-12-25T05:46:04.285Z,738.62
2016-12-25T05:47:04.259Z,738.29
2016-12-25T05:48:04.240Z,738.37
2016-12-25T05:49:04.216Z,738.28
2016-12-25T05:50:04.192Z,738.37
2016-12-25T05:51:04.167Z,738.1
2016-12-25T05:52:04.148Z,738.06
2016-12-25T05:53:04.124Z,738.09
2016-12-25T05:54:04.101Z,737.72
2016-12-25T05:55:04.074Z,738.12
2016-12-25T05:56:04.055Z,737.82
2016-12-25T05:57:04.028Z,738.27
2016-12-25T05:58:04.007Z,738.16
2016-12-25T05:59:03.984Z,738.11
2016-12-25T06:00:03.957Z,738.26
2016-12-25T06:01:03.934Z,738.63
2016-12-25T06:02:03.914Z,738.47
2016-12-25T06:03:03.891Z,738.44
2016-12-25T06:04:03.867Z,738.12
2016-12-25T06:05:03.840Z,738.22
2016-12-25T06:06:03.820Z,737.77
2016-12-25T06:07:03.794Z,737.97
2016-12-25T06:08:03.773Z,737.57
2016-12-25T06:09:03.747Z,737.77
2016-12-25T06:10:03.727Z,737.71
2016-12-25T06:11:03.699Z,737.9
2016-12-25T06:12:03.676Z,737.74
2016-12-25T06:13:03.655Z,738.38
2016-12-25T06:14:03.632Z,737.64
2016-12-25T06:15:03.607Z,737.7
2016-12-25T06:16:03.581Z,737.73
2016-12-25T06:17:03.561Z,737.76
2016-12-25T06:18:03.534Z,737.62
2016-12-25T06:19:03.513Z,737.68
2016-12-25T06:20:03.490Z,736.95
2016-12-25T06:21:03.466Z,737.54
2016-12-25T06:22:03.439Z,738.49
2016-12-25T06:23:03.416Z,738.3
2016-12-25T06:24:03.392Z,738.35
2016-12-25T06:25:03.372Z,738.34
2016-12-25T06:26:03.346Z,738.16
2016-12-25T06:27:03.321Z,738.03
2016-12-25T06:28:03.301Z,737.39
2016-12-25T06:29:03.277Z,738.17
2016-12-25T06:30:03.250Z,737.92
2016-12-25T06:31:03.229Z,738.24
2016-12-25T06:32:03.206Z,738.6
2016-12-25T06:33:03.182Z,738.17
2016-12-25T06:34:03.155Z,738.49
2016-12-25T06:35:03.131Z,738.3
2016-12-25T06:36:03.111Z,737.81
2016-12-25T06:37:03.086Z,737.95
2016-12-25T06:38:03.063Z,737.73
2016-12-25T06:39:03.039Z,737.9
2016-12-25T06:40:03.015Z,738.17
2016-12-25T06:41:02.992Z,738.38
2016-12-25T06:42:02.965Z,738.56
2016-12-25T06:43:02.941Z,737.71
2016-12-25T06:44:02.919Z,738.48
2016-12-25T06:45:02.893Z,738.44
2016-12-25T06:46:02.874Z,738.58
2016-12-25T06:47:02.848Z,738.16
2016-12-25T06:48:02.824Z,738.31
2016-12-25T06:49:02.797Z,738.94
2016-12-25T06:50:02.775Z,738.31
2016-12-25T06:51:02.749Z,738.43
2016-12-25T06:52:02.725Z,738.28
2016-12-25T06:53:02.705Z,738.48
2016-12-25T06:54:02.681Z,738.12
2016-12-25T06:55:02.657Z,738.66
2016-12-25T06:56:02.634Z,738.49
2016-12-25T06:57:02.610Z,738.51
2016-12-25T06:58:02.584Z,738.28
2016-12-25T06:59:02.562Z,738.42
2016-12-25T07:00:02.539Z,738.65
2016-12-25T07:01:02.512Z,738.88
2016-12-25T07:02:02.491Z,738.14
2016-12-25T07:03:02.464Z,738.56
2016-12-25T07:04:02.444Z,738.49
2016-12-25T07:05:02.420Z,739.25
2016-12-25T07:06:02.392Z,738.27
2016-12-25T07:07:02.369Z,738.62
2016-12-25T07:08:02.350Z,738.66
2016-12-25T07:09:02.322Z,739
2016-12-25T07:10:02.299Z,738.45
2016-12-25T07:11:02.273Z,738.82
2016-12-25T07:12:02.254Z,738.56
2016-12-25T07:13:02.226Z,739.09
2016-12-25T07:14:02.203Z,739.39
2016-12-25T07:15:02.180Z,738.49
2016-12-25T07:16:02.156Z,738.29
2016-12-25T07:17:02.136Z,738.54
2016-12-25T07:18:02.109Z,738.46
2016-12-25T07:19:02.086Z,739.46
2016-12-25T07:20:02.063Z,738.58
2016-12-25T07:21:02.039Z,739.13
2016-12-25T07:22:02.019Z,738.68
2016-12-25T07:23:01.992Z,738.61
2016-12-25T07:24:01.971Z,738.68
2016-12-25T07:25:01.945Z,738.14
2016-12-25T07:26:01.922Z,739.18
2016-12-25T07:27:01.898Z,738.82
2016-12-25T07:28:01.875Z,737.78
2016-12-25T07:29:01.851Z,737.99
2016-12-25T07:30:01.830Z,738.38
2016-12-25T07:31:01.807Z,737.42
2016-12-25T07:32:01.779Z,738.59
2016-12-25T07:33:01.759Z,738.05
2016-12-25T07:34:01.735Z,738.87
2016-12-25T07:35:01.708Z,738.97
2016-12-25T07:36:01.684Z,738.27
2016-12-25T07:37:01.661Z,737.93
2016-12-25T07:38:01.641Z,738.56
2016-12-25T07:39:01.616Z,738.97
2016-12-25T07:40:01.590Z,738.98
2016-12-25T07:41:01.569Z,738.86
2016-12-25T07:42:01.544Z,738.91
2016-12-25T07:43:01.519Z,739.14
2016-12-25T07:44:01.498Z,738.97
2016-12-25T07:45:01.472Z,739.14
2016-12-25T07:46:01.447Z,739.23
2016-12-25T07:47:01.423Z,739.37
2016-12-25T07:48:01.400Z,739.24
2016-12-25T07:49:01.380Z,738.4
2016-12-25T07:50:01.356Z,739.21
2016-12-25T07:51:01.332Z,738.99
2016-12-25T07:52:01.306Z,738.8
2016-12-25T07:53:01.282Z,738.24
2016-12-25T07:54:01.261Z,738.3
2016-12-25T07:55:01.237Z,737.2
2016-12-25T07:56:01.211Z,739.32
2016-12-25T07:57:01.189Z,739
2016-12-25T07:58:01.163Z,738.26
2016-12-25T07:59:01.140Z,738.81
2016-12-25T08:00:01.119Z,738.94
2016-12-25T08:01:01.095Z,739.48
2016-12-25T08:02:01.069Z,739.12
2016-12-25T08:03:01.045Z,738.95
2016-12-25T08:04:01.022Z,739.07
2016-12-25T08:05:01.001Z,740.09
2016-12-25T08:06:00.973Z,739.28
2016-12-25T08:07:00.951Z,740
2016-12-25T08:08:00.930Z,739.8
2016-12-25T08:09:00.907Z,739.71
2016-12-25T08:10:00.884Z,739.41
2016-12-25T08:11:00.861Z,738.99
2016-12-25T08:12:00.836Z,739.4
2016-12-25T08:13:00.810Z,739.05
2016-12-25T08:14:00.790Z,739.14
2016-12-25T08:15:00.767Z,738.87
2016-12-25T08:16:00.743Z,738.95
2016-12-25T08:17:00.717Z,738.58
2016-12-25T08:18:00.694Z,740.02
2016-12-25T08:19:00.674Z,739.76
2016-12-25T08:20:00.650Z,739.49
2016-12-25T08:21:00.627Z,739.74
2016-12-25T08:22:00.603Z,739.68
2016-12-25T08:23:00.576Z,739.33
2016-12-25T08:24:00.554Z,739.2
2016-12-25T08:25:00.530Z,740.01
2016-12-25T08:26:00.509Z,739.09
2016-12-25T08:27:00.483Z,739.37
2016-12-25T08:28:00.463Z,739.24
2016-12-25T08:29:00.440Z,739.41
2016-12-25T08:30:00.412Z,739.43
2016-12-25T08:31:00.389Z,739.31
2016-12-25T08:32:00.371Z,739.34
2016-12-25T08:33:00.344Z,739.36
2016-12-25T08:34:00.323Z,739.3
2016-12-25T08:35:00.300Z,739.49
2016-12-25T08:36:00.277Z,739.57
2016-12-25T08:37:00.250Z,739.6
2016-12-25T08:38:00.231Z,739.25
2016-12-25T08:39:00.208Z,739.15
2016-12-25T08:40:00.182Z,739.31
2016-12-25T08:41:00.162Z,738.46
2016-12-25T08:42:00.139Z,738.93
2016-12-25T08:43:00.113Z,739.55
2016-12-25T08:44:00.091Z,739.34
2016-12-25T08:45:00.067Z,739.71
2016-12-25T08:46:00.048Z,739.45
2016-12-25T08:47:00.025Z,739.64
2016-12-25T08:48:00.003Z,739.63
2016-12-25T08:48:59.976Z,739.66
2016-12-25T08:49:59.957Z,739.86
2016-12-25T08:50:59.938Z,739.45
2016-12-25T08:51:59.911Z,739.07
2016-12-25T08:52:59.889Z,739.49
2016-12-25T08:53:59.866Z,739.64
2016-12-25T08:54:59.844Z,739.76
2016-12-25T08:55:59.818Z,739.35
2016-12-25T08:56:59.798Z,739.38
2016-12-25T08:57:59.773Z,739.98
2016-12-25T08:58:59.749Z,739.86
2016-12-25T08:59:59.730Z,740.01
2016-12-25T09:00:59.705Z,739.73
2016-12-25T09:01:59.685Z,739.75
2016-12-25T09:02:59.662Z,739.72
2016-12-25T09:03:59.637Z,739.95
2016-12-25T09:04:59.614Z,739.74
2016-12-25T09:05:59.592Z,739.64
2016-12-25T09:06:59.572Z,739.76
2016-12-25T09:07:59.550Z,739.8
2016-12-25T09:08:59.527Z,739.81
2016-12-25T09:09:59.504Z,740
2016-12-25T09:10:59.479Z,740.1
2016-12-25T09:11:59.460Z,740.05
2016-12-25T09:12:59.438Z,740.24
2016-12-25T09:13:59.415Z,740.41
2016-12-25T09:14:59.390Z,740.45
2016-12-25T09:15:59.367Z,740.17
2016-12-25T09:16:59.349Z,740.43
2016-12-25T09:17:59.326Z,740.5
2016-12-25T09:18:59.301Z,740.43
2016-12-25T09:19:59.279Z,740.44
2016-12-25T09:20:59.260Z,740.3
2016-12-25T09:21:59.238Z,740.49
2016-12-25T09:22:59.217Z,740.56
2016-12-25T09:23:59.192Z,740.64
2016-12-25T09:24:59.170Z,740.85
2016-12-25T09:25:59.148Z,740.48
2016-12-25T09:26:59.127Z,740.62
2016-12-25T09:27:59.108Z,740.7
2016-12-25T09:28:59.086Z,740.77
2016-12-25T09:29:59.066Z,740.85
2016-12-25T09:30:59.043Z,740.73
2016-12-25T09:31:59.019Z,740.76
2016-12-25T09:32:58.997Z,740.69
2016-12-25T09:33:58.979Z,740.63
2016-12-25T09:34:58.958Z,740.65
2016-12-25T09:35:58.936Z,740.85
2016-12-25T09:36:58.915Z,740.89
2016-12-25T09:37:58.891Z,740.93
2016-12-25T09:38:58.873Z,740.73
2016-12-25T09:39:58.848Z,740.84
2016-12-25T09:40:58.830Z,740.83
2016-12-25T09:41:58.809Z,740.85
2016-12-25T09:42:58.785Z,741.04
2016-12-25T09:43:58.766Z,740.89
2016-12-25T09:44:58.746Z,740.87
2016-12-25T09:45:58.725Z,740.73
2016-12-25T09:46:58.703Z,740.91
2016-12-25T09:47:58.683Z,740.9
2016-12-25T09:48:58.659Z,740.79
2016-12-25T09:49:58.639Z,740.87
2016-12-25T09:50:58.622Z,740.8
2016-12-25T09:51:58.598Z,740.89
2016-12-25T09:52:58.581Z,740.86
2016-12-25T09:53:58.559Z,740.59
2016-12-25T09:54:58.539Z,740.79
2016-12-25T09:55:58.518Z,740.77
2016-12-25T09:56:58.498Z,740.93
2016-12-25T09:57:58.476Z,741.04
2016-12-25T09:58:58.455Z,741
2016-12-25T09:59:58.431Z,741.08
2016-12-25T10:00:58.412Z,741.04
2016-12-25T10:01:58.392Z,740.95
2016-12-25T10:02:58.372Z,740.95
2016-12-25T10:03:58.351Z,740.99
2016-12-25T10:04:58.327Z,740.75
2016-12-25T10:05:58.306Z,741
2016-12-25T10:06:58.286Z,741.04
2016-12-25T10:07:58.269Z,740.94
2016-12-25T10:08:58.244Z,740.93
2016-12-25T10:09:58.227Z,740.95
2016-12-25T10:10:58.205Z,740.88
2016-12-25T10:11:58.183Z,740.97
2016-12-25T10:12:58.166Z,740.94
2016-12-25T10:13:58.143Z,741.05
2016-12-25T10:14:58.128Z,741.08
2016-12-25T10:15:58.102Z,741.04
2016-12-25T10:16:58.081Z,741.07
2016-12-25T10:17:58.064Z,741.1
2016-12-25T10:18:58.041Z,740.91
2016-12-25T10:19:58.020Z,740.98
2016-12-25T10:20:58.003Z,740.97
2016-12-25T10:21:57.983Z,740.86
2016-12-25T10:22:57.962Z,740.74
2016-12-25T10:23:57.939Z,740.75
2016-12-25T10:24:57.919Z,740.87
2016-12-25T10:25:57.899Z,740.92
2016-12-25T10:26:57.878Z,740.76
2016-12-25T10:27:57.861Z,740.84
2016-12-25T10:28:57.838Z,740.85
2016-12-25T10:29:57.818Z,740.92
2016-12-25T10:30:57.796Z,740.85
2016-12-25T10:31:57.777Z,740.83
2016-12-25T10:32:57.757Z,740.74
2016-12-25T10:33:57.736Z,740.88
2016-12-25T10:34:57.716Z,740.91
2016-12-25T10:35:57.697Z,740.97
2016-12-25T10:36:57.677Z,740.91
2016-12-25T10:37:57.656Z,740.91
2016-12-25T10:38:57.640Z,741
2016-12-25T10:39:57.620Z,741.09
2016-12-25T10:40:57.601Z,741.01
2016-12-25T10:41:57.578Z,740.87
2016-12-25T10:42:57.559Z,740.75
2016-12-25T10:43:57.539Z,741.2
2016-12-25T10:44:57.523Z,741.27
2016-12-25T10:45:57.503Z,741.03
2016-12-25T10:46:57.484Z,741.05
2016-12-25T10:47:57.465Z,741.16
2016-12-25T10:48:57.442Z,741.29
2016-12-25T10:49:57.426Z,741.2
2016-12-25T10:50:57.407Z,741.18
2016-12-25T10:51:57.384Z,741.24
2016-12-25T10:52:57.367Z,741.24
2016-12-25T10:53:57.349Z,741.26
2016-12-25T10:54:57.327Z,741.35
2016-12-25T10:55:57.309Z,741.28
2016-12-25T10:56:57.288Z,741.3
2016-12-25T10:57:57.269Z,741.33
2016-12-25T10:58:57.251Z,741.31
2016-12-25T10:59:57.234Z,741.32
2016-12-25T11:00:57.216Z,741.35
2016-12-25T11:01:57.194Z,741.32
2016-12-25T11:02:57.176Z,741.31
2016-12-25T11:03:57.156Z,741.37
2016-12-25T11:04:57.138Z,741.42
2016-12-25T11:05:57.124Z,741.43
2016-12-25T11:06:57.101Z,741.32
2016-12-25T11:07:57.083Z,741.25
2016-12-25T11:08:57.069Z,741.29
2016-12-25T11:09:57.051Z,741.16
2016-12-25T11:10:57.029Z,741.25
2016-12-25T11:11:57.014Z,741.24
2016-12-25T11:12:56.993Z,741.25
2016-12-25T11:13:56.975Z,741.23
2016-12-25T11:14:56.957Z,741.21
2016-12-25T11:15:56.938Z,741.21
2016-12-25T11:16:56.923Z,741.27
2016-12-25T11:17:56.904Z,741.22
2016-12-25T11:18:56.883Z,741.24
2016-12-25T11:19:56.865Z,741.12
2016-12-25T11:20:56.847Z,741.13
2016-12-25T11:21:56.828Z,741.15
2016-12-25T11:22:56.809Z,741.16
2016-12-25T11:23:56.791Z,741.24
2016-12-25T11:24:56.773Z,741.28
2016-12-25T11:25:56.758Z,741.27
2016-12-25T11:26:56.740Z,741.27
2016-12-25T11:27:56.722Z,741.29
2016-12-25T11:28:56.700Z,741.34
2016-12-25T11:29:56.682Z,741.36
2016-12-25T11:30:56.668Z,741.44
2016-12-25T11:31:56.651Z,741.34
2016-12-25T11:32:56.632Z,741.34
2016-12-25T11:33:56.614Z,741.33
2016-12-25T11:34:56.593Z,741.26
2016-12-25T11:35:56.578Z,741.25
2016-12-25T11:36:56.557Z,741.32
2016-12-25T11:37:56.543Z,741.34
2016-12-25T11:38:56.521Z,741.31
2016-12-25T11:39:56.507Z,741.33
2016-12-25T11:40:56.488Z,741.4
2016-12-25T11:41:56.471Z,741.42
2016-12-25T11:42:56.450Z,741.41
2016-12-25T11:43:56.432Z,741.43
2016-12-25T11:44:56.414Z,741.44
2016-12-25T11:45:56.397Z,741.47
2016-12-25T11:46:56.382Z,741.48
2016-12-25T11:47:56.364Z,741.42
2016-12-25T11:48:56.344Z,741.46
2016-12-25T11:49:56.332Z,741.33
2016-12-25T11:50:56.308Z,741.44
2016-12-25T11:51:56.294Z,741.44
2016-12-25T11:52:56.277Z,741.51
2016-12-25T11:53:56.256Z,741.5
2016-12-25T11:54:56.238Z,741.48
2016-12-25T11:55:56.223Z,741.51
2016-12-25T11:56:56.204Z,741.52
2016-12-25T11:57:56.188Z,741.46
2016-12-25T11:58:56.168Z,741.47
2016-12-25T11:59:56.154Z,741.48
2016-12-25T12:00:56.134Z,741.37
2016-12-25T12:01:56.115Z,741.3
2016-12-25T12:02:56.102Z,741.5
2016-12-25T12:03:56.081Z,741.47
2016-12-25T12:04:56.065Z,741.55
2016-12-25T12:05:56.049Z,741.58
2016-12-25T12:06:56.032Z,741.55
2016-12-25T12:07:56.015Z,741.48
2016-12-25T12:08:55.997Z,741.27
2016-12-25T12:09:55.980Z,741.28
2016-12-25T12:10:55.960Z,741.25
2016-12-25T12:11:55.945Z,741.41
2016-12-25T12:12:55.924Z,741.52
2016-12-25T12:13:55.906Z,741.47
2016-12-25T12:14:55.889Z,741.52
2016-12-25T12:15:55.872Z,741.67
2016-12-25T12:16:55.854Z,741.68
2016-12-25T12:17:55.839Z,741.67
2016-12-25T12:18:55.822Z,741.61
2016-12-25T12:19:55.801Z,741.58
2016-12-25T12:20:55.788Z,741.59
2016-12-25T12:21:55.771Z,741.59
2016-12-25T12:22:55.750Z,741.55
2016-12-25T12:23:55.734Z,741.6
2016-12-25T12:24:55.718Z,741.68
2016-12-25T12:25:55.701Z,741.76
2016-12-25T12:26:55.681Z,741.64
2016-12-25T12:27:55.662Z,741.72
2016-12-25T12:28:55.649Z,741.84
2016-12-25T12:29:55.632Z,741.74
2016-12-25T12:30:55.614Z,741.45